sensor_id;sensor_type;location;lat;lon;timestamp;P1;durP1;ratioP1;P2;durP2;ratioP2
50012;SDS011;35901;48.694;9.476;2023-10-19T00:01:20;29.67;;;25.73;;
50012;SDS011;35901;48.694;9.476;2023-10-19T00:03:50;35.37;;;28.53;;
50012;SDS011;35901;48.694;9.476;2023-10-19T00:06:18;29.60;;;25.73;;
50012;SDS011;35901;48.694;9.476;2023-10-19T00:08:44;32.50;;;26.67;;
50012;SDS011;35901;48.694;9.476;2023-10-19T00:11:10;35.37;;;26.90;;
50012;SDS011;35901;48.694;9.476;2023-10-19T00:13:46;29.97;;;25.43;;
50012;SDS011;35901;48.694;9.476;2023-10-19T00:16:15;31.40;;;25.10;;
50012;SDS011;35901;48.694;9.476;2023-10-19T00:18:48;29.90;;;24.77;;
50012;SDS011;35901;48.694;9.476;2023-10-19T00:21:15;35.90;;;28.37;;
50012;SDS011;35901;48.694;9.476;2023-10-19T00:23:51;30.17;;;26.00;;
50012;SDS011;35901;48.694;9.476;2023-10-19T00:26:22;31.30;;;25.57;;
50012;SDS011;35901;48.694;9.476;2023-10-19T00:28:55;37.47;;;27.03;;
50012;SDS011;35901;48.694;9.476;2023-10-19T00:31:21;35.20;;;27.33;;
50012;SDS011;35901;48.694;9.476;2023-10-19T00:33:48;31.17;;;26.00;;
50012;SDS011;35901;48.694;9.476;2023-10-19T00:36:16;34.00;;;28.50;;
50012;SDS011;35901;48.694;9.476;2023-10-19T00:38:45;33.17;;;28.33;;
50012;SDS011;35901;48.694;9.476;2023-10-19T00:41:14;34.43;;;29.27;;
50012;SDS011;35901;48.694;9.476;2023-10-19T00:43:50;34.57;;;28.30;;
50012;SDS011;35901;48.694;9.476;2023-10-19T00:46:22;34.53;;;29.53;;
50012;SDS011;35901;48.694;9.476;2023-10-19T00:48:52;31.93;;;26.93;;
50012;SDS011;35901;48.694;9.476;2023-10-19T00:51:30;30.70;;;25.67;;
50012;SDS011;35901;48.694;9.476;2023-10-19T00:54:18;31.00;;;25.17;;
50012;SDS011;35901;48.694;9.476;2023-10-19T00:57:06;30.17;;;25.60;;
50012;SDS011;35901;48.694;9.476;2023-10-19T00:59:39;35.67;;;27.93;;
50012;SDS011;35901;48.694;9.476;2023-10-19T01:02:12;31.70;;;28.13;;
50012;SDS011;35901;48.694;9.476;2023-10-19T01:04:46;34.30;;;28.73;;
50012;SDS011;35901;48.694;9.476;2023-10-19T01:07:21;34.60;;;27.87;;
50012;SDS011;35901;48.694;9.476;2023-10-19T01:09:58;39.57;;;31.60;;
50012;SDS011;35901;48.694;9.476;2023-10-19T01:12:26;31.50;;;27.77;;
50012;SDS011;35901;48.694;9.476;2023-10-19T01:15:05;32.07;;;27.87;;
50012;SDS011;35901;48.694;9.476;2023-10-19T01:17:47;36.87;;;30.53;;
50012;SDS011;35901;48.694;9.476;2023-10-19T01:20:19;37.53;;;30.37;;
50012;SDS011;35901;48.694;9.476;2023-10-19T01:22:51;36.13;;;29.27;;
50012;SDS011;35901;48.694;9.476;2023-10-19T01:28:22;30.17;;;25.97;;
50012;SDS011;35901;48.694;9.476;2023-10-19T01:31:04;37.80;;;30.90;;
50012;SDS011;35901;48.694;9.476;2023-10-19T01:33:31;38.40;;;30.63;;
50012;SDS011;35901;48.694;9.476;2023-10-19T01:35:59;38.80;;;30.70;;
50012;SDS011;35901;48.694;9.476;2023-10-19T01:38:39;38.00;;;31.13;;
50012;SDS011;35901;48.694;9.476;2023-10-19T01:41:07;34.83;;;29.03;;
50012;SDS011;35901;48.694;9.476;2023-10-19T01:43:41;40.23;;;32.43;;
50012;SDS011;35901;48.694;9.476;2023-10-19T01:46:11;37.77;;;30.13;;
50012;SDS011;35901;48.694;9.476;2023-10-19T01:48:46;36.27;;;30.27;;
50012;SDS011;35901;48.694;9.476;2023-10-19T01:51:15;33.97;;;27.27;;
50012;SDS011;35901;48.694;9.476;2023-10-19T01:53:42;33.30;;;27.80;;
50012;SDS011;35901;48.694;9.476;2023-10-19T01:56:12;37.43;;;31.03;;
50012;SDS011;35901;48.694;9.476;2023-10-19T02:01:14;31.23;;;26.57;;
50012;SDS011;35901;48.694;9.476;2023-10-19T02:03:46;34.33;;;29.47;;
50012;SDS011;35901;48.694;9.476;2023-10-19T02:06:13;34.03;;;28.83;;
50012;SDS011;35901;48.694;9.476;2023-10-19T02:08:56;34.73;;;30.17;;
50012;SDS011;35901;48.694;9.476;2023-10-19T02:11:25;33.17;;;28.63;;
50012;SDS011;35901;48.694;9.476;2023-10-19T02:13:52;38.50;;;31.33;;
50012;SDS011;35901;48.694;9.476;2023-10-19T02:16:19;33.40;;;28.53;;
50012;SDS011;35901;48.694;9.476;2023-10-19T02:18:50;30.50;;;26.83;;
50012;SDS011;35901;48.694;9.476;2023-10-19T02:21:16;29.97;;;25.53;;
50012;SDS011;35901;48.694;9.476;2023-10-19T02:23:47;32.10;;;27.37;;
50012;SDS011;35901;48.694;9.476;2023-10-19T02:26:16;31.33;;;26.30;;
50012;SDS011;35901;48.694;9.476;2023-10-19T02:28:46;30.63;;;27.00;;
50012;SDS011;35901;48.694;9.476;2023-10-19T02:31:12;33.50;;;28.63;;
50012;SDS011;35901;48.694;9.476;2023-10-19T02:33:43;28.23;;;25.10;;
50012;SDS011;35901;48.694;9.476;2023-10-19T02:36:14;33.23;;;28.37;;
50012;SDS011;35901;48.694;9.476;2023-10-19T02:38:41;36.23;;;30.17;;
50012;SDS011;35901;48.694;9.476;2023-10-19T02:41:14;32.93;;;26.63;;
50012;SDS011;35901;48.694;9.476;2023-10-19T02:43:41;31.30;;;25.63;;
50012;SDS011;35901;48.694;9.476;2023-10-19T02:46:10;35.50;;;27.40;;
50012;SDS011;35901;48.694;9.476;2023-10-19T02:48:38;30.30;;;25.13;;
50012;SDS011;35901;48.694;9.476;2023-10-19T02:51:10;32.90;;;26.07;;
50012;SDS011;35901;48.694;9.476;2023-10-19T02:53:39;35.80;;;28.27;;
50012;SDS011;35901;48.694;9.476;2023-10-19T02:56:12;31.67;;;25.07;;
50012;SDS011;35901;48.694;9.476;2023-10-19T02:58:43;31.97;;;25.87;;
50012;SDS011;35901;48.694;9.476;2023-10-19T03:01:20;30.50;;;25.63;;
50012;SDS011;35901;48.694;9.476;2023-10-19T03:03:50;33.20;;;26.83;;
50012;SDS011;35901;48.694;9.476;2023-10-19T03:06:19;36.50;;;28.33;;
50012;SDS011;35901;48.694;9.476;2023-10-19T03:08:48;33.37;;;25.97;;
50012;SDS011;35901;48.694;9.476;2023-10-19T03:11:27;31.30;;;25.53;;
50012;SDS011;35901;48.694;9.476;2023-10-19T03:13:56;35.63;;;27.37;;
50012;SDS011;35901;48.694;9.476;2023-10-19T03:16:22;32.97;;;25.43;;
50012;SDS011;35901;48.694;9.476;2023-10-19T03:18:55;30.20;;;25.00;;
50012;SDS011;35901;48.694;9.476;2023-10-19T03:21:21;39.50;;;29.50;;
50012;SDS011;35901;48.694;9.476;2023-10-19T03:23:52;36.23;;;26.97;;
50012;SDS011;35901;48.694;9.476;2023-10-19T03:26:19;41.47;;;26.70;;
50012;SDS011;35901;48.694;9.476;2023-10-19T03:28:53;39.07;;;27.23;;
50012;SDS011;35901;48.694;9.476;2023-10-19T03:31:22;40.13;;;26.80;;
50012;SDS011;35901;48.694;9.476;2023-10-19T03:33:52;41.43;;;26.67;;
50012;SDS011;35901;48.694;9.476;2023-10-19T03:36:24;240.63;;;36.33;;
50012;SDS011;35901;48.694;9.476;2023-10-19T03:38:51;256.90;;;34.07;;
50012;SDS011;35901;48.694;9.476;2023-10-19T03:41:19;350.87;;;37.37;;
50012;SDS011;35901;48.694;9.476;2023-10-19T03:43:54;55.17;;;29.07;;
50012;SDS011;35901;48.694;9.476;2023-10-19T03:46:22;82.40;;;33.23;;
50012;SDS011;35901;48.694;9.476;2023-10-19T03:48:56;71.10;;;32.20;;
50012;SDS011;35901;48.694;9.476;2023-10-19T03:51:27;53.93;;;33.37;;
50012;SDS011;35901;48.694;9.476;2023-10-19T03:54:04;58.57;;;34.60;;
50012;SDS011;35901;48.694;9.476;2023-10-19T03:56:45;50.10;;;32.53;;
50012;SDS011;35901;48.694;9.476;2023-10-19T03:59:13;53.87;;;32.37;;
50012;SDS011;35901;48.694;9.476;2023-10-19T04:01:38;54.33;;;32.20;;
50012;SDS011;35901;48.694;9.476;2023-10-19T04:04:04;49.87;;;31.43;;
50012;SDS011;35901;48.694;9.476;2023-10-19T04:06:30;54.60;;;35.60;;
50012;SDS011;35901;48.694;9.476;2023-10-19T04:08:56;38.67;;;28.77;;
50012;SDS011;35901;48.694;9.476;2023-10-19T04:11:21;40.10;;;28.47;;
50012;SDS011;35901;48.694;9.476;2023-10-19T04:13:48;76.87;;;31.80;;
50012;SDS011;35901;48.694;9.476;2023-10-19T04:16:21;38.47;;;28.03;;
50012;SDS011;35901;48.694;9.476;2023-10-19T04:18:46;49.60;;;31.33;;
50012;SDS011;35901;48.694;9.476;2023-10-19T04:21:13;31.43;;;24.77;;
50012;SDS011;35901;48.694;9.476;2023-10-19T04:23:39;50.03;;;30.63;;
50012;SDS011;35901;48.694;9.476;2023-10-19T04:26:05;53.33;;;31.37;;
50012;SDS011;35901;48.694;9.476;2023-10-19T04:28:39;55.13;;;27.50;;
50012;SDS011;35901;48.694;9.476;2023-10-19T04:31:18;39.10;;;29.37;;
50012;SDS011;35901;48.694;9.476;2023-10-19T04:33:44;46.47;;;31.57;;
50012;SDS011;35901;48.694;9.476;2023-10-19T04:36:12;45.50;;;31.90;;
50012;SDS011;35901;48.694;9.476;2023-10-19T04:38:39;36.23;;;29.77;;
50012;SDS011;35901;48.694;9.476;2023-10-19T04:41:05;48.67;;;32.17;;
50012;SDS011;35901;48.694;9.476;2023-10-19T04:43:37;42.50;;;30.67;;
50012;SDS011;35901;48.694;9.476;2023-10-19T04:46:13;42.53;;;29.67;;
50012;SDS011;35901;48.694;9.476;2023-10-19T04:48:39;41.57;;;29.43;;
50012;SDS011;35901;48.694;9.476;2023-10-19T04:51:08;46.23;;;30.70;;
50012;SDS011;35901;48.694;9.476;2023-10-19T04:53:37;47.63;;;30.97;;
50012;SDS011;35901;48.694;9.476;2023-10-19T04:56:04;40.80;;;28.63;;
50012;SDS011;35901;48.694;9.476;2023-10-19T04:58:30;43.43;;;29.27;;
50012;SDS011;35901;48.694;9.476;2023-10-19T05:00:56;45.43;;;30.30;;
50012;SDS011;35901;48.694;9.476;2023-10-19T05:03:24;52.23;;;30.37;;
50012;SDS011;35901;48.694;9.476;2023-10-19T05:05:53;56.13;;;29.77;;
50012;SDS011;35901;48.694;9.476;2023-10-19T05:08:19;69.73;;;35.50;;
50012;SDS011;35901;48.694;9.476;2023-10-19T05:10:49;57.23;;;32.33;;
50012;SDS011;35901;48.694;9.476;2023-10-19T05:13:14;47.17;;;29.33;;
50012;SDS011;35901;48.694;9.476;2023-10-19T05:15:40;50.60;;;29.90;;
50012;SDS011;35901;48.694;9.476;2023-10-19T05:18:07;62.87;;;32.50;;
50012;SDS011;35901;48.694;9.476;2023-10-19T05:20:33;59.17;;;32.30;;
50012;SDS011;35901;48.694;9.476;2023-10-19T05:22:59;45.33;;;29.53;;
50012;SDS011;35901;48.694;9.476;2023-10-19T05:25:25;54.97;;;33.00;;
50012;SDS011;35901;48.694;9.476;2023-10-19T05:27:51;42.20;;;29.83;;
50012;SDS011;35901;48.694;9.476;2023-10-19T05:30:17;132.03;;;36.10;;
50012;SDS011;35901;48.694;9.476;2023-10-19T05:32:42;49.80;;;29.17;;
50012;SDS011;35901;48.694;9.476;2023-10-19T05:35:08;35.27;;;26.30;;
50012;SDS011;35901;48.694;9.476;2023-10-19T05:37:38;38.13;;;30.20;;
50012;SDS011;35901;48.694;9.476;2023-10-19T05:40:03;42.33;;;31.53;;
50012;SDS011;35901;48.694;9.476;2023-10-19T05:42:30;45.20;;;32.63;;
50012;SDS011;35901;48.694;9.476;2023-10-19T05:44:56;39.07;;;30.13;;
50012;SDS011;35901;48.694;9.476;2023-10-19T05:47:22;46.87;;;32.17;;
50012;SDS011;35901;48.694;9.476;2023-10-19T05:49:48;43.03;;;31.63;;
50012;SDS011;35901;48.694;9.476;2023-10-19T05:52:13;38.57;;;30.10;;
50012;SDS011;35901;48.694;9.476;2023-10-19T05:54:39;40.37;;;30.50;;
50012;SDS011;35901;48.694;9.476;2023-10-19T05:57:05;50.63;;;33.73;;
50012;SDS011;35901;48.694;9.476;2023-10-19T05:59:33;43.97;;;31.93;;
50012;SDS011;35901;48.694;9.476;2023-10-19T06:01:59;42.40;;;29.30;;
50012;SDS011;35901;48.694;9.476;2023-10-19T06:04:25;48.73;;;31.43;;
50012;SDS011;35901;48.694;9.476;2023-10-19T06:06:50;37.33;;;27.87;;
50012;SDS011;35901;48.694;9.476;2023-10-19T06:09:16;39.50;;;27.77;;
50012;SDS011;35901;48.694;9.476;2023-10-19T06:11:43;35.83;;;26.07;;
50012;SDS011;35901;48.694;9.476;2023-10-19T06:14:09;35.93;;;28.37;;
50012;SDS011;35901;48.694;9.476;2023-10-19T06:16:35;38.77;;;29.03;;
50012;SDS011;35901;48.694;9.476;2023-10-19T06:19:01;43.90;;;30.43;;
50012;SDS011;35901;48.694;9.476;2023-10-19T06:21:28;37.00;;;27.37;;
50012;SDS011;35901;48.694;9.476;2023-10-19T06:23:55;38.23;;;27.60;;
50012;SDS011;35901;48.694;9.476;2023-10-19T06:26:21;41.90;;;28.87;;
50012;SDS011;35901;48.694;9.476;2023-10-19T06:28:49;43.37;;;31.40;;
50012;SDS011;35901;48.694;9.476;2023-10-19T06:31:16;41.73;;;28.60;;
50012;SDS011;35901;48.694;9.476;2023-10-19T06:33:42;39.30;;;27.70;;
50012;SDS011;35901;48.694;9.476;2023-10-19T06:36:08;38.67;;;28.43;;
50012;SDS011;35901;48.694;9.476;2023-10-19T06:38:34;36.90;;;26.00;;
50012;SDS011;35901;48.694;9.476;2023-10-19T06:40:59;41.53;;;30.77;;
50012;SDS011;35901;48.694;9.476;2023-10-19T06:43:28;43.47;;;32.00;;
50012;SDS011;35901;48.694;9.476;2023-10-19T06:45:55;41.17;;;31.33;;
50012;SDS011;35901;48.694;9.476;2023-10-19T06:48:21;41.80;;;32.33;;
50012;SDS011;35901;48.694;9.476;2023-10-19T06:50:47;48.43;;;36.57;;
50012;SDS011;35901;48.694;9.476;2023-10-19T06:53:13;46.37;;;34.10;;
50012;SDS011;35901;48.694;9.476;2023-10-19T06:55:39;47.77;;;33.20;;
50012;SDS011;35901;48.694;9.476;2023-10-19T06:58:05;57.07;;;34.70;;
50012;SDS011;35901;48.694;9.476;2023-10-19T07:00:31;55.23;;;36.30;;
50012;SDS011;35901;48.694;9.476;2023-10-19T07:02:58;53.43;;;34.40;;
50012;SDS011;35901;48.694;9.476;2023-10-19T07:05:28;45.47;;;34.90;;
50012;SDS011;35901;48.694;9.476;2023-10-19T07:07:57;38.97;;;30.30;;
50012;SDS011;35901;48.694;9.476;2023-10-19T07:10:24;44.43;;;35.03;;
50012;SDS011;35901;48.694;9.476;2023-10-19T07:12:52;41.07;;;30.63;;
50012;SDS011;35901;48.694;9.476;2023-10-19T07:15:19;40.97;;;30.30;;
50012;SDS011;35901;48.694;9.476;2023-10-19T07:17:47;41.47;;;30.40;;
50012;SDS011;35901;48.694;9.476;2023-10-19T07:20:15;37.97;;;29.40;;
50012;SDS011;35901;48.694;9.476;2023-10-19T07:22:52;41.67;;;31.77;;
50012;SDS011;35901;48.694;9.476;2023-10-19T07:25:19;43.50;;;31.50;;
50012;SDS011;35901;48.694;9.476;2023-10-19T07:27:49;38.03;;;28.30;;
50012;SDS011;35901;48.694;9.476;2023-10-19T07:30:17;39.30;;;29.67;;
50012;SDS011;35901;48.694;9.476;2023-10-19T07:32:50;38.43;;;28.17;;
50012;SDS011;35901;48.694;9.476;2023-10-19T07:35:20;42.07;;;30.67;;
50012;SDS011;35901;48.694;9.476;2023-10-19T07:37:47;35.60;;;28.00;;
50012;SDS011;35901;48.694;9.476;2023-10-19T07:40:15;45.53;;;33.30;;
50012;SDS011;35901;48.694;9.476;2023-10-19T07:42:42;37.20;;;29.63;;
50012;SDS011;35901;48.694;9.476;2023-10-19T07:45:09;37.67;;;28.83;;
50012;SDS011;35901;48.694;9.476;2023-10-19T07:47:37;41.40;;;32.37;;
50012;SDS011;35901;48.694;9.476;2023-10-19T07:50:09;37.23;;;30.73;;
50012;SDS011;35901;48.694;9.476;2023-10-19T07:52:45;35.33;;;28.77;;
50012;SDS011;35901;48.694;9.476;2023-10-19T07:55:13;33.83;;;26.33;;
50012;SDS011;35901;48.694;9.476;2023-10-19T07:57:40;34.13;;;27.23;;
50012;SDS011;35901;48.694;9.476;2023-10-19T08:00:07;31.13;;;25.10;;
50012;SDS011;35901;48.694;9.476;2023-10-19T08:02:34;32.73;;;25.90;;
50012;SDS011;35901;48.694;9.476;2023-10-19T08:05:03;32.63;;;26.00;;
50012;SDS011;35901;48.694;9.476;2023-10-19T08:07:31;26.60;;;23.70;;
50012;SDS011;35901;48.694;9.476;2023-10-19T08:09:59;26.33;;;23.33;;
50012;SDS011;35901;48.694;9.476;2023-10-19T08:12:25;28.00;;;23.10;;
50012;SDS011;35901;48.694;9.476;2023-10-19T08:14:52;24.30;;;21.20;;
50012;SDS011;35901;48.694;9.476;2023-10-19T08:17:18;23.63;;;20.83;;
50012;SDS011;35901;48.694;9.476;2023-10-19T08:19:44;22.20;;;19.90;;
50012;SDS011;35901;48.694;9.476;2023-10-19T08:22:10;22.93;;;20.47;;
50012;SDS011;35901;48.694;9.476;2023-10-19T08:24:35;22.00;;;19.33;;
50012;SDS011;35901;48.694;9.476;2023-10-19T08:27:01;21.70;;;19.50;;
50012;SDS011;35901;48.694;9.476;2023-10-19T08:29:30;24.67;;;21.97;;
50012;SDS011;35901;48.694;9.476;2023-10-19T08:31:57;23.90;;;20.90;;
50012;SDS011;35901;48.694;9.476;2023-10-19T08:34:22;28.30;;;24.20;;
50012;SDS011;35901;48.694;9.476;2023-10-19T08:36:50;33.27;;;27.13;;
50012;SDS011;35901;48.694;9.476;2023-10-19T08:39:16;27.67;;;24.63;;
50012;SDS011;35901;48.694;9.476;2023-10-19T08:41:43;25.77;;;22.93;;
50012;SDS011;35901;48.694;9.476;2023-10-19T08:44:08;24.97;;;22.20;;
50012;SDS011;35901;48.694;9.476;2023-10-19T08:46:40;23.03;;;20.63;;
50012;SDS011;35901;48.694;9.476;2023-10-19T08:49:14;24.20;;;20.30;;
50012;SDS011;35901;48.694;9.476;2023-10-19T08:51:44;20.47;;;18.47;;
50012;SDS011;35901;48.694;9.476;2023-10-19T08:54:11;17.53;;;15.73;;
50012;SDS011;35901;48.694;9.476;2023-10-19T08:56:38;16.87;;;15.17;;
50012;SDS011;35901;48.694;9.476;2023-10-19T08:59:06;16.37;;;14.67;;
50012;SDS011;35901;48.694;9.476;2023-10-19T09:01:32;14.10;;;12.80;;
50012;SDS011;35901;48.694;9.476;2023-10-19T09:04:00;12.60;;;11.33;;
50012;SDS011;35901;48.694;9.476;2023-10-19T09:06:26;12.47;;;11.40;;
50012;SDS011;35901;48.694;9.476;2023-10-19T09:08:57;11.33;;;10.33;;
50012;SDS011;35901;48.694;9.476;2023-10-19T09:11:25;10.80;;;9.80;;
50012;SDS011;35901;48.694;9.476;2023-10-19T09:13:51;10.00;;;9.00;;
50012;SDS011;35901;48.694;9.476;2023-10-19T09:16:19;9.07;;;8.07;;
50012;SDS011;35901;48.694;9.476;2023-10-19T09:18:46;9.37;;;8.47;;
50012;SDS011;35901;48.694;9.476;2023-10-19T09:21:15;9.97;;;8.97;;
50012;SDS011;35901;48.694;9.476;2023-10-19T09:23:54;9.13;;;8.33;;
50012;SDS011;35901;48.694;9.476;2023-10-19T09:26:22;9.50;;;8.50;;
50012;SDS011;35901;48.694;9.476;2023-10-19T09:28:49;9.10;;;8.30;;
50012;SDS011;35901;48.694;9.476;2023-10-19T09:31:16;9.10;;;8.20;;
50012;SDS011;35901;48.694;9.476;2023-10-19T09:33:43;8.63;;;7.80;;
50012;SDS011;35901;48.694;9.476;2023-10-19T09:36:09;8.40;;;7.63;;
50012;SDS011;35901;48.694;9.476;2023-10-19T09:38:48;9.43;;;8.53;;
50012;SDS011;35901;48.694;9.476;2023-10-19T09:41:19;8.77;;;7.93;;
50012;SDS011;35901;48.694;9.476;2023-10-19T09:43:49;9.93;;;9.10;;
50012;SDS011;35901;48.694;9.476;2023-10-19T09:46:22;8.97;;;8.17;;
50012;SDS011;35901;48.694;9.476;2023-10-19T09:48:51;9.03;;;7.90;;
50012;SDS011;35901;48.694;9.476;2023-10-19T09:51:17;9.07;;;8.10;;
50012;SDS011;35901;48.694;9.476;2023-10-19T09:53:48;9.33;;;8.53;;
50012;SDS011;35901;48.694;9.476;2023-10-19T09:56:24;9.67;;;8.77;;
50012;SDS011;35901;48.694;9.476;2023-10-19T09:58:54;10.27;;;9.23;;
50012;SDS011;35901;48.694;9.476;2023-10-19T10:01:23;9.47;;;8.57;;
50012;SDS011;35901;48.694;9.476;2023-10-19T10:03:51;9.43;;;8.53;;
50012;SDS011;35901;48.694;9.476;2023-10-19T10:06:27;8.70;;;8.00;;
50012;SDS011;35901;48.694;9.476;2023-10-19T10:08:52;7.07;;;6.37;;
50012;SDS011;35901;48.694;9.476;2023-10-19T10:11:22;7.93;;;6.73;;
50012;SDS011;35901;48.694;9.476;2023-10-19T10:13:50;6.80;;;6.00;;
50012;SDS011;35901;48.694;9.476;2023-10-19T10:16:17;6.80;;;6.13;;
50012;SDS011;35901;48.694;9.476;2023-10-19T10:18:45;7.03;;;6.43;;
50012;SDS011;35901;48.694;9.476;2023-10-19T10:21:20;7.77;;;6.60;;
50012;SDS011;35901;48.694;9.476;2023-10-19T10:23:51;7.80;;;7.10;;
50012;SDS011;35901;48.694;9.476;2023-10-19T10:26:25;8.23;;;7.47;;
50012;SDS011;35901;48.694;9.476;2023-10-19T10:29:10;8.30;;;7.60;;
50012;SDS011;35901;48.694;9.476;2023-10-19T10:31:49;9.07;;;8.27;;
50012;SDS011;35901;48.694;9.476;2023-10-19T10:37:04;10.30;;;9.30;;
50012;SDS011;35901;48.694;9.476;2023-10-19T10:39:39;10.00;;;9.13;;
50012;SDS011;35901;48.694;9.476;2023-10-19T10:42:06;9.00;;;8.20;;
50012;SDS011;35901;48.694;9.476;2023-10-19T10:47:06;9.67;;;8.87;;
50012;SDS011;35901;48.694;9.476;2023-10-19T10:49:35;10.50;;;9.33;;
50012;SDS011;35901;48.694;9.476;2023-10-19T10:52:13;10.17;;;9.27;;
50012;SDS011;35901;48.694;9.476;2023-10-19T10:54:48;10.77;;;9.77;;
50012;SDS011;35901;48.694;9.476;2023-10-19T10:57:13;10.77;;;9.77;;
50012;SDS011;35901;48.694;9.476;2023-10-19T10:59:39;10.70;;;9.80;;
50012;SDS011;35901;48.694;9.476;2023-10-19T12:20:51;10.70;;;9.70;;
50012;SDS011;35901;48.694;9.476;2023-10-19T12:23:23;11.63;;;10.50;;
50012;SDS011;35901;48.694;9.476;2023-10-19T12:25:49;11.90;;;10.80;;
50012;SDS011;35901;48.694;9.476;2023-10-19T12:28:18;14.40;;;12.87;;
50012;SDS011;35901;48.694;9.476;2023-10-19T12:30:48;14.53;;;13.03;;
50012;SDS011;35901;48.694;9.476;2023-10-19T12:33:26;13.50;;;12.33;;
50012;SDS011;35901;48.694;9.476;2023-10-19T12:35:57;14.43;;;12.87;;
50012;SDS011;35901;48.694;9.476;2023-10-19T12:38:23;14.20;;;12.80;;
50012;SDS011;35901;48.694;9.476;2023-10-19T12:40:52;14.00;;;12.70;;
50012;SDS011;35901;48.694;9.476;2023-10-19T12:43:19;11.50;;;10.43;;
50012;SDS011;35901;48.694;9.476;2023-10-19T12:45:51;10.50;;;9.60;;
50012;SDS011;35901;48.694;9.476;2023-10-19T12:48:22;11.13;;;10.13;;
50012;SDS011;35901;48.694;9.476;2023-10-19T12:50:55;10.30;;;9.30;;
50012;SDS011;35901;48.694;9.476;2023-10-19T12:53:21;9.67;;;8.83;;
50012;SDS011;35901;48.694;9.476;2023-10-19T12:55:50;7.80;;;7.10;;
50012;SDS011;35901;48.694;9.476;2023-10-19T12:58:17;8.67;;;7.87;;
50012;SDS011;35901;48.694;9.476;2023-10-19T13:00:45;10.73;;;9.67;;
50012;SDS011;35901;48.694;9.476;2023-10-19T13:03:14;12.63;;;11.33;;
50012;SDS011;35901;48.694;9.476;2023-10-19T13:12:19;8.17;;;7.37;;
50012;SDS011;35901;48.694;9.476;2023-10-19T13:14:48;9.33;;;8.43;;
50012;SDS011;35901;48.694;9.476;2023-10-19T13:17:14;7.83;;;7.23;;
50012;SDS011;35901;48.694;9.476;2023-10-19T13:19:40;9.27;;;8.20;;
50012;SDS011;35901;48.694;9.476;2023-10-19T13:22:06;8.77;;;7.97;;
50012;SDS011;35901;48.694;9.476;2023-10-19T13:24:33;10.13;;;8.27;;
50012;SDS011;35901;48.694;9.476;2023-10-19T13:27:06;9.23;;;8.43;;
50012;SDS011;35901;48.694;9.476;2023-10-19T13:29:32;9.17;;;8.37;;
50012;SDS011;35901;48.694;9.476;2023-10-19T13:32:02;9.50;;;8.60;;
50012;SDS011;35901;48.694;9.476;2023-10-19T13:34:29;9.30;;;8.40;;
50012;SDS011;35901;48.694;9.476;2023-10-19T13:43:35;8.63;;;7.83;;
50012;SDS011;35901;48.694;9.476;2023-10-19T13:46:00;9.00;;;8.20;;
50012;SDS011;35901;48.694;9.476;2023-10-19T13:48:27;9.40;;;8.50;;
50012;SDS011;35901;48.694;9.476;2023-10-19T13:50:53;9.13;;;8.23;;
50012;SDS011;35901;48.694;9.476;2023-10-19T13:53:25;9.30;;;8.40;;
50012;SDS011;35901;48.694;9.476;2023-10-19T13:55:51;10.00;;;9.00;;
50012;SDS011;35901;48.694;9.476;2023-10-19T13:58:17;9.37;;;8.47;;
50012;SDS011;35901;48.694;9.476;2023-10-19T14:00:43;13.73;;;12.27;;
50012;SDS011;35901;48.694;9.476;2023-10-19T14:03:10;13.00;;;11.60;;
50012;SDS011;35901;48.694;9.476;2023-10-19T14:05:42;13.33;;;11.80;;
50012;SDS011;35901;48.694;9.476;2023-10-19T14:11:29;12.70;;;11.37;;
50012;SDS011;35901;48.694;9.476;2023-10-19T14:13:55;11.13;;;10.03;;
50012;SDS011;35901;48.694;9.476;2023-10-19T14:16:21;12.60;;;9.93;;
50012;SDS011;35901;48.694;9.476;2023-10-19T14:18:48;11.30;;;10.30;;
50012;SDS011;35901;48.694;9.476;2023-10-19T14:21:14;11.27;;;10.17;;
50012;SDS011;35901;48.694;9.476;2023-10-19T14:23:41;11.17;;;10.07;;
50012;SDS011;35901;48.694;9.476;2023-10-19T14:26:08;11.53;;;10.33;;
50012;SDS011;35901;48.694;9.476;2023-10-19T14:28:34;11.57;;;10.53;;
50012;SDS011;35901;48.694;9.476;2023-10-19T14:31:01;12.40;;;11.30;;
50012;SDS011;35901;48.694;9.476;2023-10-19T14:33:29;12.30;;;11.20;;
50012;SDS011;35901;48.694;9.476;2023-10-19T14:35:55;11.60;;;10.50;;
50012;SDS011;35901;48.694;9.476;2023-10-19T14:38:21;10.60;;;9.63;;
50012;SDS011;35901;48.694;9.476;2023-10-19T14:44:38;15.77;;;14.27;;
50012;SDS011;35901;48.694;9.476;2023-10-19T14:47:05;12.27;;;11.07;;
50012;SDS011;35901;48.694;9.476;2023-10-19T14:49:31;11.87;;;10.67;;
50012;SDS011;35901;48.694;9.476;2023-10-19T14:51:57;12.63;;;11.33;;
50012;SDS011;35901;48.694;9.476;2023-10-19T14:54:23;11.13;;;10.00;;
50012;SDS011;35901;48.694;9.476;2023-10-19T14:56:49;12.73;;;11.53;;
50012;SDS011;35901;48.694;9.476;2023-10-19T14:59:15;11.90;;;10.80;;
50012;SDS011;35901;48.694;9.476;2023-10-19T15:01:40;11.33;;;9.50;;
50012;SDS011;35901;48.694;9.476;2023-10-19T15:04:07;11.03;;;9.93;;
50012;SDS011;35901;48.694;9.476;2023-10-19T15:06:33;10.93;;;9.93;;
50012;SDS011;35901;48.694;9.476;2023-10-19T15:08:59;10.60;;;9.17;;
50012;SDS011;35901;48.694;9.476;2023-10-19T15:15:13;11.93;;;10.73;;
50012;SDS011;35901;48.694;9.476;2023-10-19T15:17:48;10.73;;;9.83;;
50012;SDS011;35901;48.694;9.476;2023-10-19T15:20:15;11.43;;;10.23;;
50012;SDS011;35901;48.694;9.476;2023-10-19T15:22:42;10.43;;;9.43;;
50012;SDS011;35901;48.694;9.476;2023-10-19T15:25:09;11.47;;;10.30;;
50012;SDS011;35901;48.694;9.476;2023-10-19T15:27:37;9.63;;;8.83;;
50012;SDS011;35901;48.694;9.476;2023-10-19T15:30:04;9.97;;;8.80;;
50012;SDS011;35901;48.694;9.476;2023-10-19T15:32:34;9.93;;;8.17;;
50012;SDS011;35901;48.694;9.476;2023-10-19T15:35:01;9.60;;;8.10;;
50012;SDS011;35901;48.694;9.476;2023-10-19T15:37:27;8.47;;;7.67;;
50012;SDS011;35901;48.694;9.476;2023-10-19T15:39:53;7.47;;;6.80;;
50012;SDS011;35901;48.694;9.476;2023-10-19T15:46:06;8.37;;;7.27;;
50012;SDS011;35901;48.694;9.476;2023-10-19T15:48:32;6.83;;;6.23;;
50012;SDS011;35901;48.694;9.476;2023-10-19T15:51:01;7.47;;;6.63;;
50012;SDS011;35901;48.694;9.476;2023-10-19T15:53:28;5.80;;;5.30;;
50012;SDS011;35901;48.694;9.476;2023-10-19T15:55:57;5.50;;;5.00;;
50012;SDS011;35901;48.694;9.476;2023-10-19T15:58:22;6.87;;;5.37;;
50012;SDS011;35901;48.694;9.476;2023-10-19T16:00:50;6.03;;;5.43;;
50012;SDS011;35901;48.694;9.476;2023-10-19T16:03:15;6.00;;;5.50;;
50012;SDS011;35901;48.694;9.476;2023-10-19T16:05:41;6.70;;;6.07;;
50012;SDS011;35901;48.694;9.476;2023-10-19T16:08:07;6.53;;;6.03;;
50012;SDS011;35901;48.694;9.476;2023-10-19T16:10:32;7.97;;;7.00;;
50012;SDS011;35901;48.694;9.476;2023-10-19T16:16:46;9.53;;;8.70;;
50012;SDS011;35901;48.694;9.476;2023-10-19T16:19:13;9.13;;;8.17;;
50012;SDS011;35901;48.694;9.476;2023-10-19T16:21:39;9.23;;;8.33;;
50012;SDS011;35901;48.694;9.476;2023-10-19T16:24:09;9.00;;;8.10;;
50012;SDS011;35901;48.694;9.476;2023-10-19T16:26:36;9.13;;;8.33;;
50012;SDS011;35901;48.694;9.476;2023-10-19T16:29:03;9.00;;;8.10;;
50012;SDS011;35901;48.694;9.476;2023-10-19T16:31:40;10.97;;;8.10;;
50012;SDS011;35901;48.694;9.476;2023-10-19T16:34:13;8.37;;;7.57;;
50012;SDS011;35901;48.694;9.476;2023-10-19T16:36:39;9.63;;;8.33;;
50012;SDS011;35901;48.694;9.476;2023-10-19T16:39:06;8.90;;;8.10;;